createdAt,value
2023-06-11T00:01:45.658Z,1082.30
2023-06-11T00:06:48.103Z,1089.10
2023-06-11T00:11:50.452Z,1098.97
2023-06-11T00:16:52.804Z,1087.03
2023-06-11T00:21:57.432Z,1065.37
2023-06-11T00:27:02.868Z,1070.40
2023-06-11T00:32:05.718Z,1073.70
2023-06-11T00:37:08.056Z,1074.63
2023-06-11T00:42:11.586Z,1063.00
2023-06-11T00:47:16.348Z,1053.43
2023-06-11T00:52:19.777Z,1072.40
2023-06-11T00:57:26.242Z,1058.67
2023-06-11T01:02:40.611Z,1043.67
2023-06-11T01:07:51.927Z,1048.07
2023-06-11T01:13:02.710Z,1047.00
2023-06-11T01:18:20.539Z,1049.17
2023-06-11T01:23:42.372Z,1040.80
2023-06-11T01:28:51.268Z,1063.80
2023-06-11T01:33:54.344Z,1049.83
2023-06-11T01:39:00.244Z,1048.57
2023-06-11T01:44:30.634Z,1035.07
2023-06-11T01:49:33.029Z,1032.63
2023-06-11T01:54:35.668Z,1038.73
2023-06-11T01:59:37.865Z,1043.27
2023-06-11T02:04:40.051Z,1045.43
2023-06-11T02:09:42.392Z,1041.73
2023-06-11T02:14:44.633Z,1040.47
2023-06-11T02:19:46.778Z,1044.37
2023-06-11T02:24:49.116Z,1061.83
2023-06-11T02:29:51.584Z,1025.13
2023-06-11T02:34:53.891Z,1016.10
2023-06-11T02:39:56.297Z,1010.33
2023-06-11T02:44:58.489Z,1013.27
2023-06-11T02:50:00.980Z,1002.57
2023-06-11T02:55:03.463Z,1016.27
2023-06-11T03:00:07.384Z,1021.37
2023-06-11T03:05:10.153Z,1027.30
2023-06-11T03:10:13.672Z,1014.27
2023-06-11T03:15:16.082Z,1045.53
2023-06-11T03:20:18.226Z,949.90
2023-06-11T03:25:20.606Z,614.67
2023-06-11T03:30:22.783Z,332.90
2023-06-11T03:35:25.224Z,167.37
2023-06-11T03:40:28.457Z,93.07
2023-06-11T03:45:32.008Z,112.90
2023-06-11T03:50:34.890Z,59.23
2023-06-11T03:55:37.409Z,62.93
2023-06-11T04:00:40.662Z,61.50
2023-06-11T04:05:43.714Z,20.17
2023-06-11T04:10:46.561Z,16.63
2023-06-11T04:15:48.791Z,14.10
2023-06-11T04:20:51.181Z,11.03
2023-06-11T04:25:56.545Z,10.90
2023-06-11T04:31:01.113Z,7.43
2023-06-11T04:36:09.938Z,8.20
2023-06-11T04:41:13.554Z,7.70
2023-06-11T04:46:17.650Z,7.00
2023-06-11T04:51:21.866Z,7.23
2023-06-11T04:56:27.048Z,5.83
2023-06-11T05:01:31.699Z,5.60
2023-06-11T05:06:35.648Z,5.30
2023-06-11T05:11:45.505Z,4.93
2023-06-11T05:16:51.829Z,6.60
2023-06-11T05:21:54.461Z,5.37
2023-06-11T05:26:57.808Z,5.63
2023-06-11T05:32:01.817Z,5.20
2023-06-11T05:37:05.443Z,5.47
2023-06-11T05:42:08.785Z,5.27
2023-06-11T05:47:13.188Z,5.20
2023-06-11T05:52:15.506Z,5.60
2023-06-11T05:57:24.272Z,6.47
2023-06-11T06:02:30.024Z,5.13
2023-06-11T06:07:34.554Z,5.30
2023-06-11T06:12:36.770Z,5.20
2023-06-11T06:17:39.880Z,4.93
2023-06-11T06:22:42.701Z,5.20
2023-06-11T06:27:45.097Z,6.57
2023-06-11T06:32:47.675Z,6.23
2023-06-11T06:37:50.601Z,7.53
2023-06-11T06:42:52.908Z,7.00
2023-06-11T06:48:03.374Z,5.70
2023-06-11T06:53:06.255Z,4.73
2023-06-11T06:58:08.514Z,4.77
2023-06-11T07:03:13.518Z,4.93
2023-06-11T07:08:16.273Z,5.43
2023-06-11T07:13:21.446Z,5.43
2023-06-11T07:18:23.943Z,5.63
2023-06-11T07:23:29.177Z,5.03
2023-06-11T07:28:31.969Z,5.10
2023-06-11T07:33:35.215Z,5.23
2023-06-11T07:38:37.766Z,4.97
2023-06-11T07:43:40.712Z,4.83
2023-06-11T07:48:46.426Z,5.93
2023-06-11T07:53:48.981Z,6.53
2023-06-11T07:58:51.338Z,6.60
2023-06-11T08:03:53.564Z,5.23
2023-06-11T08:08:57.117Z,5.00
2023-06-11T08:13:59.314Z,4.50
2023-06-11T08:19:01.810Z,4.53
2023-06-11T08:24:05.078Z,4.97
2023-06-11T08:29:16.835Z,5.05
2023-06-11T08:34:20.248Z,5.77
2023-06-11T08:39:22.440Z,4.82
2023-06-11T08:44:27.244Z,4.32
2023-06-11T08:49:31.703Z,5.07
2023-06-11T08:54:34.177Z,6.85
2023-06-11T08:59:36.380Z,5.50
2023-06-11T09:04:43.051Z,5.53
2023-06-11T09:09:45.324Z,6.55
2023-06-11T09:14:53.746Z,6.18
2023-06-11T09:19:57.389Z,7.53
2023-06-11T09:25:04.992Z,5.70
2023-06-11T09:30:13.000Z,7.45
2023-06-11T09:35:20.200Z,6.72
2023-06-11T09:40:25.185Z,6.57
2023-06-11T09:45:27.796Z,6.45
2023-06-11T09:50:34.285Z,6.97
2023-06-11T09:55:37.051Z,9.13
2023-06-11T10:00:39.676Z,8.70
2023-06-11T10:05:42.319Z,14.20
2023-06-11T10:10:52.881Z,16.38
2023-06-11T10:15:55.333Z,12.90
2023-06-11T10:21:06.019Z,20.55
2023-06-11T10:26:13.562Z,30.30
2023-06-11T10:31:41.062Z,34.80
2023-06-11T10:36:43.383Z,44.05
2023-06-11T10:41:45.959Z,69.65
2023-06-11T10:46:54.668Z,82.28
2023-06-11T10:51:57.324Z,86.32
2023-06-11T10:57:04.475Z,88.95
2023-06-11T11:02:13.510Z,70.95
2023-06-11T11:07:16.060Z,109.68
2023-06-11T11:12:18.308Z,120.55
2023-06-11T11:17:20.614Z,126.78
2023-06-11T11:22:22.856Z,163.85
2023-06-11T11:27:25.037Z,212.60
2023-06-11T11:32:35.576Z,187.40
2023-06-11T11:37:37.928Z,235.45
2023-06-11T11:42:50.826Z,252.20
2023-06-11T11:47:53.793Z,236.25
2023-06-11T11:53:16.635Z,247.85
2023-06-11T11:58:18.986Z,216.80
2023-06-11T12:03:23.660Z,251.10
2023-06-11T12:08:28.324Z,226.60
2023-06-11T12:13:31.309Z,194.32
2023-06-11T12:18:34.829Z,253.13
2023-06-11T12:23:37.024Z,218.13
2023-06-11T12:28:39.299Z,226.80
2023-06-11T12:33:41.479Z,256.90
2023-06-11T12:38:43.748Z,268.88
2023-06-11T12:43:45.914Z,260.60
2023-06-11T12:48:48.052Z,313.63
2023-06-11T12:53:53.934Z,201.48
2023-06-11T12:58:58.418Z,256.30
2023-06-11T13:04:00.871Z,210.13
2023-06-11T13:09:04.051Z,240.70
2023-06-11T13:14:06.406Z,280.05
2023-06-11T13:19:09.345Z,236.10
2023-06-11T13:24:11.750Z,259.48
2023-06-11T13:29:14.072Z,245.27
2023-06-11T13:34:16.431Z,278.35
2023-06-11T13:39:18.830Z,249.35
2023-06-11T13:44:21.066Z,227.90
2023-06-11T13:49:25.183Z,199.00
2023-06-11T13:54:29.675Z,271.85
2023-06-11T13:59:32.952Z,186.15
2023-06-11T14:04:35.168Z,186.18
2023-06-11T14:09:37.410Z,206.52
2023-06-11T14:14:39.632Z,158.80
2023-06-11T14:19:41.799Z,222.30
2023-06-11T14:24:44.318Z,183.40
2023-06-11T14:29:46.521Z,197.50
2023-06-11T14:34:48.681Z,194.13
2023-06-11T14:39:50.941Z,157.10
2023-06-11T14:44:53.197Z,115.22
2023-06-11T14:49:55.462Z,119.80
2023-06-11T14:54:59.768Z,126.15
2023-06-11T15:00:05.492Z,128.02
2023-06-11T15:05:08.728Z,139.60
2023-06-11T15:10:11.988Z,129.77
2023-06-11T15:15:14.474Z,152.40
2023-06-11T15:20:16.777Z,190.45
2023-06-11T15:25:19.157Z,122.85
2023-06-11T15:30:21.544Z,180.10
2023-06-11T15:35:23.773Z,170.38
2023-06-11T15:40:25.943Z,112.63
2023-06-11T15:45:28.337Z,128.75
2023-06-11T15:50:30.729Z,93.25
2023-06-11T15:55:33.135Z,71.47
2023-06-11T16:00:35.455Z,63.40
2023-06-11T16:05:38.888Z,53.35
2023-06-11T16:10:41.158Z,54.05
2023-06-11T16:15:45.113Z,40.22
2023-06-11T16:20:47.551Z,82.10
2023-06-11T16:25:49.939Z,92.45
2023-06-11T16:30:52.169Z,34.42
2023-06-11T16:35:54.266Z,40.47
2023-06-11T16:40:56.880Z,21.38
2023-06-11T16:45:59.142Z,99.65
2023-06-11T16:51:01.559Z,118.28
2023-06-11T16:56:04.290Z,26.83
2023-06-11T17:01:06.551Z,95.93
2023-06-11T17:06:08.729Z,24.75
2023-06-11T17:11:11.212Z,19.48
2023-06-11T17:16:13.449Z,18.63
2023-06-11T17:21:15.812Z,25.45
2023-06-11T17:26:17.993Z,22.77
2023-06-11T17:31:20.428Z,24.42
2023-06-11T17:36:22.638Z,21.58
2023-06-11T17:41:25.049Z,503.80
2023-06-11T17:46:27.334Z,107.90
2023-06-11T17:51:29.611Z,293.40
2023-06-11T17:56:32.113Z,46.63
2023-06-11T18:01:36.369Z,293.02
2023-06-11T18:06:39.430Z,129.18
2023-06-11T18:11:42.661Z,136.52
2023-06-11T18:16:44.873Z,105.32
2023-06-11T18:21:47.119Z,122.38
2023-06-11T18:26:49.427Z,74.88
2023-06-11T18:31:51.662Z,82.50
2023-06-11T18:36:53.868Z,71.07
2023-06-11T18:41:56.374Z,54.90
2023-06-11T18:47:02.249Z,46.90
2023-06-11T18:52:06.503Z,43.50
2023-06-11T18:57:09.747Z,49.35
2023-06-11T19:02:11.958Z,44.17
2023-06-11T19:07:16.513Z,27.17
2023-06-11T19:12:19.179Z,22.42
2023-06-11T19:17:21.626Z,23.73
2023-06-11T19:22:23.933Z,16.75
2023-06-11T19:27:29.641Z,26.13
2023-06-11T19:32:32.272Z,15.05
2023-06-11T19:37:35.938Z,21.05
2023-06-11T19:42:38.556Z,18.58
2023-06-11T19:47:41.006Z,22.45
2023-06-11T19:52:43.342Z,21.92
2023-06-11T19:57:45.873Z,15.52
2023-06-11T20:02:49.204Z,19.38
2023-06-11T20:07:51.436Z,15.35
2023-06-11T20:12:53.654Z,12.43
2023-06-11T20:17:55.921Z,12.45
2023-06-11T20:22:58.269Z,12.60
2023-06-11T20:28:00.593Z,8.60
2023-06-11T20:33:03.417Z,9.07
2023-06-11T20:38:05.815Z,12.52
2023-06-11T20:43:08.180Z,7.93
2023-06-11T20:48:10.401Z,7.72
2023-06-11T20:53:24.114Z,10.32
2023-06-11T20:58:35.203Z,8.10
2023-06-11T21:03:37.423Z,12.43
2023-06-11T21:08:39.600Z,8.77
2023-06-11T21:13:41.833Z,10.18
2023-06-11T21:18:44.035Z,11.87
2023-06-11T21:23:46.352Z,10.70
2023-06-11T21:28:48.873Z,15.38
2023-06-11T21:33:51.010Z,13.90
2023-06-11T21:38:53.186Z,10.53
2023-06-11T21:43:55.473Z,9.47
2023-06-11T21:48:59.321Z,12.00
2023-06-11T21:54:01.897Z,9.90
2023-06-11T21:59:04.232Z,9.47
2023-06-11T22:04:06.532Z,8.37
2023-06-11T22:09:14.870Z,9.10
2023-06-11T22:14:17.219Z,16.63
2023-06-11T22:19:20.030Z,9.90
2023-06-11T22:24:22.588Z,9.73
2023-06-11T22:29:24.760Z,7.73
2023-06-11T22:34:26.929Z,10.53
2023-06-11T22:39:29.172Z,8.77
2023-06-11T22:44:31.526Z,6.33
2023-06-11T22:49:34.415Z,10.73
2023-06-11T22:54:39.409Z,8.37
2023-06-11T22:59:41.899Z,8.07
2023-06-11T23:04:46.393Z,9.30
2023-06-11T23:09:48.881Z,12.40
2023-06-11T23:14:51.097Z,126.10
2023-06-11T23:19:53.242Z,15.10
2023-06-11T23:24:55.541Z,10.13
2023-06-11T23:29:57.928Z,7.43
2023-06-11T23:35:01.565Z,7.73
2023-06-11T23:40:05.668Z,8.70
2023-06-11T23:45:08.400Z,8.87
2023-06-11T23:50:11.481Z,9.77
2023-06-11T23:55:15.099Z,9.50
